createdAt,value
2022-10-07T00:01:03.689Z,14.60
2022-10-07T00:03:31.947Z,15.03
2022-10-07T00:06:06.931Z,14.93
2022-10-07T00:08:35.193Z,13.17
2022-10-07T00:11:06.951Z,14.03
2022-10-07T00:13:38.736Z,12.67
2022-10-07T00:16:07.728Z,12.53
2022-10-07T00:18:36.265Z,14.37
2022-10-07T00:21:05.198Z,13.20
2022-10-07T00:23:33.431Z,12.90
2022-10-07T00:26:02.377Z,10.97
2022-10-07T00:28:30.747Z,12.53
2022-10-07T00:31:00.747Z,12.33
2022-10-07T00:33:29.096Z,11.63
2022-10-07T00:35:57.330Z,12.47
2022-10-07T00:38:25.667Z,11.17
2022-10-07T00:40:53.904Z,10.63
2022-10-07T00:43:26.358Z,10.87
2022-10-07T00:45:54.781Z,9.43
2022-10-07T00:48:25.707Z,10.53
2022-10-07T00:50:54.374Z,9.80
2022-10-07T00:53:22.604Z,10.37
2022-10-07T00:55:50.845Z,9.87
2022-10-07T00:58:19.388Z,9.47
2022-10-07T01:00:47.648Z,8.93
2022-10-07T01:03:16.192Z,9.60
2022-10-07T01:05:45.878Z,8.60
2022-10-07T01:08:15.668Z,8.27
2022-10-07T01:10:46.252Z,8.10
2022-10-07T01:13:15.835Z,7.97
2022-10-07T01:15:45.504Z,8.63
2022-10-07T01:18:15.001Z,8.43
2022-10-07T01:20:46.756Z,8.87
2022-10-07T01:23:22.856Z,8.10
2022-10-07T01:25:56.336Z,7.13
2022-10-07T01:28:26.584Z,8.00
2022-10-07T01:30:56.644Z,8.37
2022-10-07T01:33:27.937Z,8.27
2022-10-07T01:35:56.291Z,6.47
2022-10-07T01:38:26.250Z,6.30
2022-10-07T01:40:56.113Z,6.93
2022-10-07T01:43:25.751Z,6.27
2022-10-07T01:45:54.697Z,6.77
2022-10-07T01:48:22.986Z,5.67
2022-10-07T01:50:51.336Z,6.13
2022-10-07T01:53:23.491Z,6.17
2022-10-07T01:55:53.503Z,4.73
2022-10-07T01:58:26.222Z,5.70
2022-10-07T02:00:56.228Z,5.13
2022-10-07T02:03:39.419Z,5.17
2022-10-07T02:06:08.553Z,5.10
2022-10-07T02:08:38.406Z,4.67
2022-10-07T02:11:10.877Z,5.03
2022-10-07T02:13:41.878Z,5.40
2022-10-07T02:16:11.659Z,4.83
2022-10-07T02:18:39.929Z,4.63
2022-10-07T02:21:08.747Z,5.23
2022-10-07T02:23:36.999Z,4.73
2022-10-07T02:26:05.225Z,4.60
2022-10-07T02:28:33.607Z,4.60
2022-10-07T02:31:03.574Z,4.87
2022-10-07T02:33:31.836Z,5.23
2022-10-07T02:36:00.964Z,3.67
2022-10-07T02:38:29.765Z,3.27
2022-10-07T02:41:00.575Z,4.37
2022-10-07T02:43:30.088Z,4.07
2022-10-07T02:45:59.847Z,3.10
2022-10-07T02:48:29.821Z,3.00
2022-10-07T02:51:00.213Z,3.30
2022-10-07T02:53:28.916Z,3.43
2022-10-07T02:55:57.150Z,3.33
2022-10-07T02:58:26.481Z,3.37
2022-10-07T03:00:54.936Z,3.83
2022-10-07T03:03:23.499Z,3.50
2022-10-07T03:05:53.113Z,2.57
2022-10-07T03:08:21.506Z,2.33
2022-10-07T03:10:49.771Z,3.03
2022-10-07T03:13:18.024Z,3.30
2022-10-07T03:15:46.330Z,2.30
2022-10-07T03:18:28.521Z,2.33
2022-10-07T03:20:58.482Z,2.83
2022-10-07T03:23:26.780Z,2.30
2022-10-07T03:25:55.373Z,2.00
2022-10-07T03:28:24.290Z,2.50
2022-10-07T03:30:52.909Z,2.67
2022-10-07T03:33:24.251Z,2.43
2022-10-07T03:35:53.996Z,2.03
2022-10-07T03:38:23.768Z,1.97
2022-10-07T03:40:52.012Z,2.37
2022-10-07T03:43:20.350Z,2.20
2022-10-07T03:45:51.069Z,1.93
2022-10-07T03:48:19.391Z,2.37
2022-10-07T03:50:50.070Z,1.90
2022-10-07T03:53:18.321Z,1.53
2022-10-07T03:55:47.916Z,2.03
2022-10-07T03:58:16.679Z,2.00
2022-10-07T04:00:44.922Z,1.60
2022-10-07T04:03:13.387Z,1.67
2022-10-07T04:05:41.701Z,1.80
2022-10-07T04:08:11.776Z,1.40
2022-10-07T04:10:40.035Z,1.57
2022-10-07T04:13:09.607Z,1.67
2022-10-07T04:15:38.420Z,1.60
2022-10-07T04:18:07.172Z,1.77
2022-10-07T04:20:35.406Z,1.60
2022-10-07T04:23:03.660Z,1.80
2022-10-07T04:25:34.891Z,1.47
2022-10-07T04:28:03.789Z,1.93
2022-10-07T04:30:34.113Z,1.73
2022-10-07T04:33:02.843Z,1.50
2022-10-07T04:35:31.112Z,1.90
2022-10-07T04:37:59.599Z,1.37
2022-10-07T04:40:27.903Z,1.43
2022-10-07T04:43:13.687Z,1.30
2022-10-07T04:45:43.308Z,1.10
2022-10-07T04:48:11.534Z,1.43
2022-10-07T04:50:40.104Z,1.30
2022-10-07T04:53:08.588Z,1.90
2022-10-07T04:55:38.166Z,1.17
2022-10-07T04:58:06.454Z,1.87
2022-10-07T05:00:35.945Z,1.60
2022-10-07T05:03:05.711Z,1.47
2022-10-07T05:05:34.518Z,1.20
2022-10-07T05:08:02.770Z,1.37
2022-10-07T05:10:31.056Z,1.87
2022-10-07T05:12:59.347Z,1.63
2022-10-07T05:15:27.610Z,1.23
2022-10-07T05:17:55.972Z,2.27
2022-10-07T05:20:25.771Z,1.70
2022-10-07T05:22:54.032Z,1.60
2022-10-07T05:25:22.319Z,1.73
2022-10-07T05:27:54.987Z,2.10
2022-10-07T05:30:23.292Z,2.37
2022-10-07T05:32:51.659Z,1.83
2022-10-07T05:35:19.968Z,2.33
2022-10-07T05:37:51.356Z,1.77
2022-10-07T05:40:19.883Z,2.30
2022-10-07T05:42:48.126Z,2.80
2022-10-07T05:45:16.405Z,2.57
2022-10-07T05:47:44.934Z,2.53
2022-10-07T05:50:13.342Z,2.63
2022-10-07T05:52:42.608Z,2.57
2022-10-07T05:55:12.624Z,3.97
2022-10-07T05:57:41.345Z,3.50
2022-10-07T06:00:10.181Z,4.23
2022-10-07T06:02:38.934Z,4.03
2022-10-07T06:05:07.781Z,5.17
2022-10-07T06:07:36.007Z,4.37
2022-10-07T06:10:21.909Z,5.60
2022-10-07T06:13:09.731Z,4.63
2022-10-07T06:15:38.021Z,4.90
2022-10-07T06:18:06.432Z,5.77
2022-10-07T06:20:34.885Z,5.60
2022-10-07T06:23:03.129Z,3.80
2022-10-07T06:25:31.366Z,5.30
2022-10-07T06:28:01.878Z,6.70
2022-10-07T06:30:30.980Z,6.37
2022-10-07T06:32:59.386Z,5.47
2022-10-07T06:35:28.447Z,5.27
2022-10-07T06:37:56.805Z,7.00
2022-10-07T06:40:25.090Z,6.07
2022-10-07T06:42:53.421Z,5.53
2022-10-07T06:45:23.468Z,7.37
2022-10-07T06:47:51.682Z,6.73
2022-10-07T06:50:20.111Z,6.23
2022-10-07T06:52:48.374Z,7.33
2022-10-07T06:55:17.375Z,6.77
2022-10-07T06:57:46.628Z,7.83
2022-10-07T07:00:15.620Z,6.30
2022-10-07T07:02:45.493Z,7.17
2022-10-07T07:05:15.524Z,7.70
2022-10-07T07:07:44.222Z,7.47
2022-10-07T07:10:12.685Z,6.70
2022-10-07T07:12:41.075Z,6.77
2022-10-07T07:15:09.867Z,6.33
2022-10-07T07:17:38.085Z,6.70
2022-10-07T07:20:08.390Z,6.70
2022-10-07T07:22:36.665Z,6.87
2022-10-07T07:25:05.087Z,6.20
2022-10-07T07:27:35.998Z,6.33
2022-10-07T07:30:04.920Z,6.83
2022-10-07T07:32:33.218Z,6.33
2022-10-07T07:35:04.527Z,7.90
2022-10-07T07:37:34.250Z,6.37
2022-10-07T07:40:02.498Z,5.67
2022-10-07T07:42:30.746Z,6.23
2022-10-07T07:44:59.949Z,6.97
2022-10-07T07:47:28.282Z,6.07
2022-10-07T07:49:56.507Z,5.73
2022-10-07T07:52:25.635Z,3.53
2022-10-07T07:54:58.230Z,4.03
2022-10-07T07:57:26.892Z,4.07
2022-10-07T07:59:55.715Z,3.90
2022-10-07T08:02:24.028Z,3.03
2022-10-07T08:04:53.961Z,2.73
2022-10-07T08:07:22.248Z,3.10
2022-10-07T08:09:51.071Z,2.63
2022-10-07T08:12:23.357Z,3.10
2022-10-07T08:14:52.301Z,2.67
2022-10-07T08:17:20.543Z,1.77
2022-10-07T08:19:49.813Z,1.80
2022-10-07T08:22:18.450Z,1.63
2022-10-07T08:24:47.014Z,1.30
2022-10-07T08:27:15.291Z,2.17
2022-10-07T08:29:45.505Z,1.57
2022-10-07T08:32:13.873Z,2.10
2022-10-07T08:34:42.118Z,1.80
2022-10-07T08:37:10.350Z,1.83
2022-10-07T08:39:38.628Z,2.07
2022-10-07T08:42:08.617Z,2.50
2022-10-07T08:44:39.081Z,2.17
2022-10-07T08:47:11.599Z,1.93
2022-10-07T08:49:43.157Z,1.60
2022-10-07T08:52:21.213Z,2.17
2022-10-07T08:54:49.564Z,2.80
2022-10-07T08:57:23.272Z,2.97
2022-10-07T08:59:52.325Z,1.60
2022-10-07T09:02:24.841Z,2.27
2022-10-07T09:04:55.071Z,1.30
2022-10-07T09:07:27.847Z,1.27
2022-10-07T09:09:57.398Z,1.03
2022-10-07T09:12:27.039Z,1.20
2022-10-07T09:14:56.399Z,1.40
2022-10-07T09:17:27.530Z,1.00
2022-10-07T09:19:59.231Z,0.47
2022-10-07T09:22:30.203Z,1.00
2022-10-07T09:25:01.734Z,0.70
2022-10-07T09:27:30.065Z,1.00
2022-10-07T09:29:58.388Z,1.17
2022-10-07T09:32:28.073Z,1.20
2022-10-07T09:34:56.331Z,1.43
2022-10-07T09:37:24.732Z,1.30
2022-10-07T09:39:53.393Z,1.20
2022-10-07T09:42:27.460Z,0.90
2022-10-07T09:44:56.118Z,1.30
2022-10-07T09:47:24.742Z,0.90
2022-10-07T09:49:54.917Z,0.90
2022-10-07T09:52:23.521Z,0.83
2022-10-07T09:54:52.718Z,1.40
2022-10-07T09:57:28.358Z,1.10
2022-10-07T10:00:15.386Z,1.00
2022-10-07T10:02:44.767Z,1.30
2022-10-07T10:05:21.663Z,1.07
2022-10-07T10:07:50.002Z,1.17
2022-10-07T10:10:18.526Z,0.83
2022-10-07T10:12:47.196Z,1.43
2022-10-07T10:15:18.516Z,0.83
2022-10-07T10:17:46.764Z,1.40
2022-10-07T10:20:29.635Z,1.30
2022-10-07T10:22:57.918Z,1.33
2022-10-07T10:25:45.108Z,1.33
2022-10-07T10:28:14.656Z,1.03
2022-10-07T10:30:43.532Z,0.60
2022-10-07T10:33:14.975Z,1.13
2022-10-07T10:35:46.627Z,1.10
2022-10-07T10:38:19.822Z,0.70
2022-10-07T10:40:49.523Z,0.73
2022-10-07T10:43:23.290Z,0.70
2022-10-07T10:46:00.486Z,1.33
2022-10-07T10:48:30.427Z,1.10
2022-10-07T10:51:02.349Z,1.27
2022-10-07T10:53:34.502Z,0.93
2022-10-07T10:56:09.961Z,0.90
2022-10-07T10:58:42.949Z,1.37
2022-10-07T11:01:13.074Z,1.10
2022-10-07T11:03:45.345Z,0.90
2022-10-07T11:06:17.015Z,1.07
2022-10-07T11:08:47.313Z,1.00
2022-10-07T11:11:17.204Z,0.87
2022-10-07T11:13:46.939Z,1.20
2022-10-07T11:16:17.605Z,0.87
2022-10-07T11:18:46.682Z,1.23
2022-10-07T11:21:18.276Z,0.70
2022-10-07T11:23:50.225Z,0.93
2022-10-07T11:26:20.647Z,0.60
2022-10-07T11:28:48.940Z,0.70
2022-10-07T11:31:18.531Z,0.70
2022-10-07T11:33:48.657Z,0.87
2022-10-07T11:36:20.201Z,0.60
2022-10-07T11:38:48.455Z,0.83
2022-10-07T11:41:17.521Z,1.00
2022-10-07T11:43:46.316Z,1.50
2022-10-07T11:46:17.235Z,1.00
2022-10-07T11:48:46.738Z,0.60
2022-10-07T11:51:20.175Z,0.70
2022-10-07T11:53:48.589Z,1.10
2022-10-07T11:56:17.639Z,1.30
2022-10-07T11:58:46.450Z,1.27
2022-10-07T12:01:41.561Z,1.00
2022-10-07T12:04:24.812Z,1.43
2022-10-07T12:07:11.969Z,0.97
2022-10-07T12:09:57.844Z,0.80
2022-10-07T12:12:26.082Z,0.83
2022-10-07T12:15:00.903Z,0.87
2022-10-07T12:17:30.367Z,0.63
2022-10-07T12:20:17.495Z,1.17
2022-10-07T12:22:46.069Z,1.00
2022-10-07T12:25:32.412Z,0.90
2022-10-07T12:28:00.954Z,1.07
2022-10-07T12:30:39.169Z,0.60
2022-10-07T12:33:17.237Z,1.20
2022-10-07T12:35:50.062Z,1.23
2022-10-07T12:38:24.290Z,0.97
2022-10-07T12:40:55.697Z,0.80
2022-10-07T12:43:26.281Z,1.00
2022-10-07T12:45:54.918Z,0.70
2022-10-07T12:48:23.933Z,1.03
2022-10-07T12:50:52.771Z,1.23
2022-10-07T12:53:21.222Z,1.00
2022-10-07T12:55:50.178Z,0.90
2022-10-07T12:58:43.669Z,1.00
2022-10-07T13:01:16.303Z,0.93
2022-10-07T13:03:57.126Z,1.07
2022-10-07T13:06:32.443Z,1.37
2022-10-07T13:09:16.255Z,1.13
2022-10-07T13:12:02.480Z,1.50
2022-10-07T13:14:33.388Z,1.17
2022-10-07T13:17:03.651Z,1.40
2022-10-07T13:19:32.623Z,1.20
2022-10-07T13:22:02.192Z,0.77
2022-10-07T13:24:30.458Z,1.37
2022-10-07T13:26:58.758Z,1.03
2022-10-07T13:29:27.928Z,1.00
2022-10-07T13:32:07.832Z,1.23
2022-10-07T13:34:36.965Z,0.80
2022-10-07T13:37:05.258Z,1.00
2022-10-07T13:39:33.502Z,1.37
2022-10-07T13:42:03.009Z,0.97
2022-10-07T13:44:31.824Z,1.30
2022-10-07T13:47:01.218Z,1.53
2022-10-07T13:49:31.126Z,0.93
2022-10-07T13:52:00.493Z,0.80
2022-10-07T13:54:29.476Z,1.27
2022-10-07T13:56:57.718Z,1.43
2022-10-07T13:59:26.081Z,0.80
2022-10-07T14:01:54.890Z,1.40
2022-10-07T14:04:25.509Z,0.97
2022-10-07T14:06:56.298Z,0.50
2022-10-07T14:09:27.200Z,1.00
2022-10-07T14:11:56.488Z,0.80
2022-10-07T14:14:26.205Z,0.73
2022-10-07T14:16:59.328Z,0.87
2022-10-07T14:19:32.290Z,1.20
2022-10-07T14:22:03.322Z,0.77
2022-10-07T14:24:31.584Z,0.70
2022-10-07T14:27:00.515Z,0.63
2022-10-07T14:29:37.635Z,0.97
2022-10-07T14:32:30.464Z,0.80
2022-10-07T14:35:18.446Z,0.90
2022-10-07T14:37:48.205Z,0.70
2022-10-07T14:40:20.614Z,0.77
2022-10-07T14:42:49.114Z,1.13
2022-10-07T14:45:18.157Z,1.17
2022-10-07T14:47:46.708Z,0.67
2022-10-07T14:50:17.781Z,1.43
2022-10-07T14:52:47.102Z,1.30
2022-10-07T14:55:18.616Z,1.20
2022-10-07T14:57:48.121Z,0.60
2022-10-07T15:00:17.557Z,0.90
2022-10-07T15:02:46.074Z,0.90
2022-10-07T15:05:15.004Z,0.90
2022-10-07T15:07:43.864Z,0.70
2022-10-07T15:10:18.042Z,0.97
2022-10-07T15:12:46.632Z,0.60
2022-10-07T15:15:15.310Z,0.70
2022-10-07T15:17:43.835Z,0.83
2022-10-07T15:20:12.543Z,0.60
2022-10-07T15:22:40.780Z,1.33
2022-10-07T15:25:12.021Z,0.70
2022-10-07T15:27:41.657Z,0.60
2022-10-07T15:30:10.326Z,0.73
2022-10-07T15:32:38.571Z,0.97
2022-10-07T15:35:07.526Z,0.70
2022-10-07T15:37:35.809Z,0.60
2022-10-07T15:40:06.629Z,0.87
2022-10-07T15:42:34.925Z,0.70
2022-10-07T15:45:04.615Z,0.80
2022-10-07T15:47:34.392Z,1.20
2022-10-07T15:50:02.691Z,0.50
2022-10-07T15:52:30.965Z,1.13
2022-10-07T15:55:05.090Z,0.73
2022-10-07T15:57:35.718Z,0.70
2022-10-07T16:00:05.599Z,0.67
2022-10-07T16:02:36.260Z,1.03
2022-10-07T16:05:04.722Z,0.40
2022-10-07T16:07:32.932Z,0.60
2022-10-07T16:10:01.221Z,0.93
2022-10-07T16:12:29.424Z,0.83
2022-10-07T16:14:57.676Z,0.70
2022-10-07T16:17:27.683Z,0.73
2022-10-07T16:19:56.035Z,0.80
2022-10-07T16:22:24.427Z,0.60
2022-10-07T16:24:55.486Z,0.57
2022-10-07T16:27:44.576Z,0.60
2022-10-07T16:30:31.007Z,0.77
2022-10-07T16:33:00.687Z,0.80
2022-10-07T16:35:31.113Z,0.57
2022-10-07T16:37:59.383Z,0.57
2022-10-07T16:40:27.626Z,0.80
2022-10-07T16:42:57.658Z,0.93
2022-10-07T16:45:25.916Z,0.60
2022-10-07T16:47:56.997Z,0.60
2022-10-07T16:50:26.657Z,0.50
2022-10-07T16:52:54.882Z,0.83
2022-10-07T16:55:23.758Z,0.83
2022-10-07T16:57:53.528Z,0.40
2022-10-07T17:00:22.278Z,0.47
2022-10-07T17:02:51.266Z,0.97
2022-10-07T17:05:19.576Z,0.53
2022-10-07T17:07:49.323Z,0.50
2022-10-07T17:10:17.652Z,0.67
2022-10-07T17:12:46.009Z,0.50
2022-10-07T17:15:15.863Z,0.40
2022-10-07T17:17:44.708Z,0.97
2022-10-07T17:20:13.552Z,0.40
2022-10-07T17:22:43.232Z,0.50
2022-10-07T17:25:13.038Z,0.87
2022-10-07T17:27:41.267Z,0.50
2022-10-07T17:30:10.217Z,0.67
2022-10-07T17:32:38.495Z,0.60
2022-10-07T17:35:08.428Z,0.80
2022-10-07T17:37:37.053Z,0.40
2022-10-07T17:40:05.706Z,0.50
2022-10-07T17:42:35.312Z,0.80
2022-10-07T17:45:04.740Z,0.40
2022-10-07T17:47:33.592Z,0.60
2022-10-07T17:50:01.902Z,0.83
2022-10-07T17:52:32.161Z,0.77
2022-10-07T17:55:00.485Z,0.80
2022-10-07T17:57:28.766Z,0.60
2022-10-07T17:59:58.416Z,0.90
2022-10-07T18:02:26.726Z,0.70
2022-10-07T18:04:55.063Z,0.83
2022-10-07T18:07:23.415Z,0.63
2022-10-07T18:09:51.667Z,0.83
2022-10-07T18:12:37.440Z,1.00
2022-10-07T18:15:23.264Z,1.07
2022-10-07T18:17:51.794Z,0.77
2022-10-07T18:20:21.279Z,0.70
2022-10-07T18:22:49.665Z,1.50
2022-10-07T18:25:17.948Z,1.23
2022-10-07T18:27:46.416Z,1.07
2022-10-07T18:30:16.276Z,1.30
2022-10-07T18:32:44.521Z,1.60
2022-10-07T18:35:12.868Z,0.73
2022-10-07T18:37:41.157Z,1.20
2022-10-07T18:40:09.849Z,1.10
2022-10-07T18:42:39.234Z,1.00
2022-10-07T18:45:07.880Z,1.00
2022-10-07T18:47:37.492Z,1.30
2022-10-07T18:50:06.124Z,1.23
2022-10-07T18:52:34.361Z,1.30
2022-10-07T18:55:02.598Z,1.10
2022-10-07T18:57:30.875Z,1.10
2022-10-07T18:59:59.133Z,1.10
2022-10-07T19:02:27.465Z,1.20
2022-10-07T19:04:57.351Z,1.03
2022-10-07T19:07:25.629Z,1.13
2022-10-07T19:09:53.897Z,1.20
2022-10-07T19:12:39.918Z,1.60
2022-10-07T19:15:08.601Z,0.90
2022-10-07T19:17:36.901Z,1.00
2022-10-07T19:20:06.768Z,1.07
2022-10-07T19:22:35.052Z,1.13
2022-10-07T19:25:20.650Z,1.17
2022-10-07T19:27:49.329Z,0.83
2022-10-07T19:30:17.908Z,1.67
2022-10-07T19:32:46.193Z,1.00
2022-10-07T19:35:15.836Z,1.30
2022-10-07T19:37:44.265Z,1.30
2022-10-07T19:40:12.779Z,0.90
2022-10-07T19:42:41.048Z,1.53
2022-10-07T19:45:10.387Z,1.07
2022-10-07T19:47:38.656Z,1.20
2022-10-07T19:50:07.243Z,1.03
2022-10-07T19:52:36.833Z,1.43
2022-10-07T19:55:05.180Z,0.80
2022-10-07T19:57:33.482Z,1.20
2022-10-07T20:00:01.726Z,1.27
2022-10-07T20:02:30.040Z,1.40
2022-10-07T20:04:58.313Z,0.90
2022-10-07T20:07:26.599Z,0.90
2022-10-07T20:09:56.241Z,0.97
2022-10-07T20:12:24.537Z,0.80
2022-10-07T20:14:52.807Z,0.83
2022-10-07T20:17:21.070Z,0.90
2022-10-07T20:19:49.358Z,1.17
2022-10-07T20:22:17.617Z,1.17
2022-10-07T20:24:45.876Z,1.10
2022-10-07T20:27:15.542Z,1.07
2022-10-07T20:29:57.846Z,0.93
2022-10-07T20:32:26.291Z,0.97
2022-10-07T20:34:54.584Z,1.07
2022-10-07T20:37:22.862Z,1.00
2022-10-07T20:40:08.808Z,0.80
2022-10-07T20:42:38.418Z,1.17
2022-10-07T20:45:07.138Z,1.50
2022-10-07T20:47:36.248Z,0.93
2022-10-07T20:50:04.532Z,0.87
2022-10-07T20:52:33.233Z,1.33
2022-10-07T20:55:01.518Z,0.97
2022-10-07T20:57:33.325Z,1.07
2022-10-07T21:00:03.511Z,0.73
2022-10-07T21:02:31.936Z,0.73
2022-10-07T21:05:00.355Z,0.70
2022-10-07T21:07:28.627Z,1.07
2022-10-07T21:09:58.192Z,1.00
2022-10-07T21:12:26.498Z,1.23
2022-10-07T21:14:56.512Z,0.97
2022-10-07T21:17:26.106Z,0.80
2022-10-07T21:19:55.141Z,0.90
2022-10-07T21:22:23.386Z,0.87
2022-10-07T21:24:51.739Z,0.50
2022-10-07T21:27:19.993Z,0.70
2022-10-07T21:29:48.882Z,1.40
2022-10-07T21:32:17.231Z,0.70
2022-10-07T21:34:46.851Z,0.70
2022-10-07T21:37:15.089Z,0.90
2022-10-07T21:39:43.293Z,0.70
2022-10-07T21:42:11.562Z,0.70
2022-10-07T21:44:40.161Z,0.70
2022-10-07T21:47:08.413Z,0.80
2022-10-07T21:49:36.671Z,0.73
2022-10-07T21:52:06.519Z,1.30
2022-10-07T21:54:37.422Z,0.87
2022-10-07T21:57:05.752Z,0.73
2022-10-07T21:59:35.180Z,0.87
2022-10-07T22:02:03.586Z,0.70
2022-10-07T22:04:31.933Z,0.60
2022-10-07T22:07:17.587Z,1.00
2022-10-07T22:09:47.169Z,0.73
2022-10-07T22:12:16.385Z,0.70
2022-10-07T22:14:44.632Z,1.30
2022-10-07T22:17:14.280Z,0.80
2022-10-07T22:19:42.541Z,0.77
2022-10-07T22:22:12.830Z,0.70
2022-10-07T22:24:41.120Z,0.90
2022-10-07T22:27:10.774Z,0.83
2022-10-07T22:29:39.242Z,1.23
2022-10-07T22:32:07.507Z,1.17
2022-10-07T22:34:53.567Z,1.00
2022-10-07T22:37:21.829Z,0.70
2022-10-07T22:39:50.158Z,1.10
2022-10-07T22:42:19.786Z,0.80
2022-10-07T22:44:48.001Z,0.50
2022-10-07T22:47:16.738Z,0.70
2022-10-07T22:49:45.021Z,0.40
2022-10-07T22:52:13.527Z,0.80
2022-10-07T22:54:41.761Z,0.87
2022-10-07T22:57:10.103Z,0.80
2022-10-07T22:59:39.892Z,0.90
2022-10-07T23:02:09.945Z,1.20
2022-10-07T23:04:38.275Z,0.70
2022-10-07T23:07:07.517Z,0.57
2022-10-07T23:09:35.826Z,0.90
2022-10-07T23:12:05.824Z,0.80
2022-10-07T23:14:34.316Z,1.20
2022-10-07T23:17:03.955Z,0.70
2022-10-07T23:19:32.216Z,0.80
2022-10-07T23:22:00.768Z,0.90
2022-10-07T23:24:29.006Z,0.60
2022-10-07T23:26:57.283Z,0.80
2022-10-07T23:29:26.567Z,0.83
2022-10-07T23:31:54.834Z,0.77
2022-10-07T23:34:24.426Z,0.60
2022-10-07T23:36:55.198Z,0.50
2022-10-07T23:39:23.440Z,0.70
2022-10-07T23:41:51.717Z,0.63
2022-10-07T23:44:19.936Z,0.87
2022-10-07T23:46:48.842Z,0.50
2022-10-07T23:49:17.196Z,0.70
2022-10-07T23:51:47.412Z,0.90
2022-10-07T23:54:15.783Z,0.50
2022-10-07T23:56:44.005Z,1.07
2022-10-07T23:59:12.223Z,0.60
